»·PEaware :: N9622C KVNY-KSNA

N9622C :: KVNY-KSNA

FLIGHT INFORMATION

Flight Status: Arrived
Operator: Privately registered:
United States
More flights under this callsign
Pilot: Michael D. (17574)
Aircraft: CESSNA 172 SKYHAWK
(C172)
More flights by this aircraft type
Origin: KVNY Van Nuys
United States
Destination: KSNA John Wayne-Orange Co
United States
More flights between these airports :: More routes between these airports
Route: +COASTAL ROUTE
File this flight plan on PilotEdge
Remarks: CAT10 Test Pt2
Altitude:
(Current/Filed)
3,000ft
Speed:
(Current/Filed)
115kts
Departed: 01-Jan-18 08:06 PM
Arrived: 01-Jan-18 08:40 PM
Distance/Time
Traveled:
17nm/0:34
Distance/Time
To Go:
Arrived

Flight Plot

Page will automatically refresh every two minutes.


Map Options




Map Legend


Flown Route
Filed Route
Departure Airport
Arrival Airport
Navaid (VOR, NDB)
Fix

Horizontal Profiles

Position Reports

Time Latitude Longitude Heading Altitude Ground
Speed
01-Jan-18 19:57 34.217430 -118.493033 48 779ft 0kts
01-Jan-18 19:58 34.217430 -118.493033 48 779ft 0kts
01-Jan-18 19:59 34.217430 -118.493033 48 779ft 0kts
01-Jan-18 20:00 34.217430 -118.493033 48 779ft 0kts
01-Jan-18 20:01 34.217430 -118.493033 48 779ft 0kts
01-Jan-18 20:02 34.217430 -118.493033 48 779ft 0kts
01-Jan-18 20:03 34.217430 -118.493033 48 779ft 0kts
01-Jan-18 20:04 34.217430 -118.493033 48 779ft 0kts
01-Jan-18 20:05 34.217430 -118.493033 48 779ft 0kts
01-Jan-18 20:06 34.217430 -118.493033 48 779ft 0kts
01-Jan-18 20:07 34.217430 -118.493033 48 779ft 0kts
01-Jan-18 20:08 34.217431 -118.493031 57 779ft 0kts
01-Jan-18 20:09 34.218811 -118.491841 89 779ft 0kts
01-Jan-18 20:10 34.218811 -118.491841 89 779ft 0kts
01-Jan-18 20:11 34.218303 -118.491157 174 779ft 20kts
01-Jan-18 20:12 34.196072 -118.489476 173 1353ft 92kts
01-Jan-18 20:13 34.182263 -118.512504 240 2222ft 94kts
01-Jan-18 20:14 34.170296 -118.540870 241 3016ft 97kts
01-Jan-18 20:15 34.143493 -118.539520 157 3067ft 115kts
01-Jan-18 20:16 34.119987 -118.526774 158 2997ft 111kts
01-Jan-18 20:17 34.089611 -118.529010 257 2998ft 108kts
01-Jan-18 20:18 34.106536 -118.543579 351 3580ft 103kts
01-Jan-18 20:19 34.139787 -118.547190 351 4381ft 103kts
01-Jan-18 20:20 34.163998 -118.538181 84 5013ft 101kts
01-Jan-18 20:21 34.147233 -118.522687 167 5445ft 105kts
01-Jan-18 20:22 34.108916 -118.515331 172 5480ft 127kts
01-Jan-18 20:23 34.080598 -118.505537 159 5483ft 128kts
01-Jan-18 20:24 34.047563 -118.488978 159 5483ft 129kts
01-Jan-18 20:25 34.014172 -118.472257 159 5483ft 130kts
01-Jan-18 20:26 33.981055 -118.455645 158 5483ft 130kts
01-Jan-18 20:27 33.947604 -118.438916 158 5484ft 130kts
01-Jan-18 20:28 33.916887 -118.416504 135 5485ft 131kts
01-Jan-18 20:29 33.891565 -118.387130 136 5483ft 131kts
01-Jan-18 20:30 33.864884 -118.357069 136 5489ft 131kts
01-Jan-18 20:31 33.837958 -118.327131 136 5494ft 132kts
01-Jan-18 20:32 33.810767 -118.297065 137 5492ft 133kts
01-Jan-18 20:33 33.784465 -118.268082 137 5491ft 133kts
01-Jan-18 20:34 33.760737 -118.235314 102 5491ft 131kts
01-Jan-18 20:35 33.752055 -118.191956 102 4879ft 136kts
01-Jan-18 20:36 33.751404 -118.148623 68 3770ft 129kts
01-Jan-18 20:37 33.756987 -118.110028 101 2391ft 103kts
01-Jan-18 20:38 33.750462 -118.074396 101 2391ft 118kts
01-Jan-18 20:39 33.743308 -118.035343 101 2563ft 117kts
01-Jan-18 20:40 33.735888 -117.994815 101 2590ft 127kts
01-Jan-18 20:41 33.728340 -117.953316 101 2590ft 127kts
01-Jan-18 20:42 33.722049 -117.918531 101 1825ft 125kts
01-Jan-18 20:43 33.715188 -117.883971 107 1610ft 82kts
01-Jan-18 20:44 33.701393 -117.862732 143 1099ft 82kts
01-Jan-18 20:45 33.680005 -117.866134 207 94ft 80kts
01-Jan-18 20:46 33.674272 -117.870832 296 60ft 0kts
01-Jan-18 20:47 33.675309 -117.871860 40 60ft 0kts
01-Jan-18 20:48 33.675309 -117.871860 40 60ft 0kts
01-Jan-18 20:49 33.675309 -117.871860 40 60ft 0kts
01-Jan-18 20:50 33.675309 -117.871860 40 60ft 0kts
01-Jan-18 20:51 33.675309 -117.871860 40 60ft 0kts
01-Jan-18 20:52 33.675309 -117.871860 40 60ft 0kts
01-Jan-18 20:53 33.675309 -117.871860 40 60ft 0kts
01-Jan-18 20:54 33.675309 -117.871860 40 60ft 0kts
01-Jan-18 20:55 33.675309 -117.871860 40 60ft 0kts
01-Jan-18 20:56 33.675309 -117.871860 40 60ft 0kts
01-Jan-18 20:57 33.675309 -117.871860 40 60ft 0kts
01-Jan-18 21:00 33.932738 -118.399122 21 109ft 0kts
01-Jan-18 21:01 33.932738 -118.399122 21 109ft 0kts

Navigation Log

Ident Type
1. KVNY Airport
2. ROUTE Fix
3. KSNA Airport